Time;durP1;ratioP1;P1;durP2;ratioP2;P2;SDS_P1;SDS_P2;PMS_P1;PMS_P2;Temp;Humidity;BMP_temperature;BMP_pressure;BME280_temperature;BME280_humidity;BME280_pressure;Samples;Min_cycle;Max_cycle;Signal;HPM_P1;HPM_P2
2022/12/03 00:02:14;;;;;;;1.83;1.20;;;8.50;44.40;;;;;;5054512;28;20183;-72
2022/12/03 00:04:40;;;;;;;3.30;2.23;;;8.40;44.70;;;;;;5057196;28;20211;-70
2022/12/03 00:07:06;;;;;;;1.60;1.10;;;8.40;45.00;;;;;;5053318;28;20188;-70
2022/12/03 00:09:31;;;;;;;3.53;1.47;;;8.30;45.10;;;;;;5053258;28;20199;-70
2022/12/03 00:11:57;;;;;;;1.70;1.17;;;8.30;44.70;;;;;;5054201;28;20168;-70
2022/12/03 00:14:22;;;;;;;1.80;1.20;;;8.40;44.50;;;;;;5053970;28;20706;-70
2022/12/03 00:16:48;;;;;;;1.70;1.10;;;8.20;45.50;;;;;;5054404;28;20199;-70
2022/12/03 00:19:14;;;;;;;1.80;1.30;;;8.40;45.10;;;;;;5051730;28;20258;-70
2022/12/03 00:21:39;;;;;;;2.50;1.67;;;8.80;44.30;;;;;;5053933;28;20172;-70
2022/12/03 00:24:05;;;;;;;1.77;1.23;;;8.60;43.90;;;;;;5052458;28;20207;-72
2022/12/03 00:26:31;;;;;;;2.37;1.63;;;8.60;43.30;;;;;;5054519;28;20176;-70
2022/12/03 00:28:56;;;;;;;2.10;1.50;;;8.80;43.60;;;;;;5051311;28;20836;-70
2022/12/03 00:31:23;;;;;;;1.70;1.20;;;8.40;43.30;;;;;;5053328;28;20521;-70
2022/12/03 00:33:49;;;;;;;1.70;1.20;;;8.40;43.70;;;;;;5053767;28;20172;-70
2022/12/03 00:36:15;;;;;;;1.70;1.10;;;8.20;43.60;;;;;;5053908;28;20168;-71
2022/12/03 00:38:40;;;;;;;1.70;1.20;;;8.10;44.20;;;;;;5053880;28;20733;-70
2022/12/03 00:41:06;;;;;;;2.43;1.40;;;8.20;44.80;;;;;;5051532;28;20184;-70
2022/12/03 00:43:32;;;;;;;1.67;1.10;;;7.90;44.10;;;;;;5053619;28;20175;-71
2022/12/03 00:45:57;;;;;;;1.83;1.10;;;8.00;44.50;;;;;;5054184;28;20668;-73
2022/12/03 00:48:23;;;;;;;1.80;1.20;;;7.70;44.30;;;;;;5053469;28;20808;-70
2022/12/03 00:50:48;;;;;;;1.80;1.20;;;7.60;44.30;;;;;;5051220;28;20172;-70
2022/12/03 00:53:14;;;;;;;2.13;1.33;;;7.60;44.60;;;;;;5053239;28;20188;-70
2022/12/03 00:55:39;;;;;;;1.80;1.20;;;7.60;44.80;;;;;;5053392;28;20258;-71
2022/12/03 00:58:07;;;;;;;3.03;1.93;;;7.70;44.20;;;;;;5053341;28;20179;-70
2022/12/03 01:00:33;;;;;;;1.73;1.17;;;7.90;43.60;;;;;;5051074;28;20561;-70
2022/12/03 01:02:58;;;;;;;1.90;1.40;;;7.90;43.50;;;;;;5052738;28;20195;-70
2022/12/03 01:05:24;;;;;;;1.70;1.10;;;7.70;44.10;;;;;;5052648;28;20643;-71
2022/12/03 01:07:50;;;;;;;1.90;1.30;;;7.60;44.40;;;;;;5052931;28;20300;-71
2022/12/03 01:10:16;;;;;;;3.50;2.23;;;7.70;43.90;;;;;;5053260;28;20292;-70
2022/12/03 01:12:42;;;;;;;1.80;1.10;;;7.70;44.10;;;;;;5051731;28;20180;-70
2022/12/03 01:15:08;;;;;;;2.00;1.30;;;7.60;44.90;;;;;;5052883;28;20418;-70
2022/12/03 01:17:33;;;;;;;1.70;1.10;;;7.60;44.50;;;;;;5053047;28;20178;-70
2022/12/03 01:20:00;;;;;;;1.80;1.20;;;7.60;45.10;;;;;;5053103;28;20570;-70
2022/12/03 01:22:26;;;;;;;2.30;1.40;;;7.70;45.10;;;;;;5050676;28;20178;-70
2022/12/03 01:24:52;;;;;;;1.87;1.40;;;7.80;44.80;;;;;;5052827;28;20168;-70
2022/12/03 01:27:17;;;;;;;1.73;1.30;;;7.80;44.10;;;;;;5052508;28;20468;-70
2022/12/03 01:29:43;;;;;;;1.80;1.30;;;8.20;44.30;;;;;;5052397;28;20207;-70
2022/12/03 01:32:15;;;;;;;3.70;1.83;;;7.70;44.50;;;;;;5052066;28;20247;-72
2022/12/03 01:34:42;;;;;;;2.15;1.40;;;7.60;45.30;;;;;;5051291;28;20218;-71
2022/12/03 01:37:07;;;;;;;1.80;1.20;;;7.80;44.50;;;;;;5052575;28;20176;-70
2022/12/03 01:39:33;;;;;;;1.80;1.20;;;7.80;45.20;;;;;;5052418;28;20195;-71
2022/12/03 01:41:58;;;;;;;2.30;1.40;;;7.90;44.80;;;;;;5052443;28;20176;-70
2022/12/03 01:44:30;;;;;;;1.80;1.20;;;7.80;44.80;;;;;;5050899;28;20670;-70
2022/12/03 01:46:59;;;;;;;2.25;1.75;;;7.70;45.40;;;;;;5052798;28;20180;-70
2022/12/03 01:49:35;;;;;;;2.08;1.50;;;7.60;45.40;;;;;;5052319;28;20290;-70
2022/12/03 01:52:01;;;;;;;1.70;1.40;;;7.70;45.80;;;;;;5052355;28;20159;-70
2022/12/03 01:54:40;;;;;;;1.67;1.10;;;7.70;45.40;;;;;;5050274;28;20208;-70
2022/12/03 01:57:18;;;;;;;2.30;1.70;;;7.80;45.50;;;;;;5052169;28;20194;-70
2022/12/03 01:59:44;;;;;;;1.92;1.48;;;8.00;44.50;;;;;;5051948;28;20554;-70
2022/12/03 02:02:19;;;;;;;1.80;1.20;;;7.80;45.20;;;;;;5052127;28;20166;-70
2022/12/03 02:04:45;;;;;;;2.05;1.50;;;7.80;45.10;;;;;;5050046;28;20442;-70
2022/12/03 02:07:24;;;;;;;1.73;1.20;;;7.80;45.40;;;;;;5051216;28;20198;-70
2022/12/03 02:09:51;;;;;;;1.70;1.25;;;7.80;44.90;;;;;;5050632;28;20192;-70
2022/12/03 02:12:21;;;;;;;1.70;1.23;;;7.90;44.80;;;;;;5052125;28;20640;-70
2022/12/03 02:14:48;;;;;;;1.70;1.20;;;7.80;45.10;;;;;;5053675;28;20182;-73
2022/12/03 02:17:13;;;;;;;1.60;1.10;;;7.80;45.10;;;;;;5051454;28;20669;-70
2022/12/03 02:19:39;;;;;;;2.63;1.50;;;7.80;45.00;;;;;;5051416;28;20278;-70
2022/12/03 02:22:16;;;;;;;2.07;1.40;;;8.10;44.90;;;;;;5051621;28;20519;-70
2022/12/03 02:24:52;;;;;;;1.70;1.10;;;7.90;44.70;;;;;;5051830;28;20194;-70
2022/12/03 02:27:18;;;;;;;3.15;2.25;;;7.80;45.00;;;;;;5049872;28;20531;-70
2022/12/03 02:29:44;;;;;;;2.40;1.60;;;7.90;45.80;;;;;;5051333;28;20219;-71
2022/12/03 02:32:09;;;;;;;2.47;1.80;;;7.90;44.40;;;;;;5051475;28;20831;-70
2022/12/03 02:34:41;;;;;;;2.67;1.80;;;7.90;44.50;;;;;;5051623;28;20186;-70
2022/12/03 02:37:28;;;;;;;1.70;1.20;;;7.80;44.60;;;;;;5049675;28;20194;-71
2022/12/03 02:39:57;;;;;;;1.90;1.25;;;7.90;44.50;;;;;;5051590;28;20207;-70
2022/12/03 02:42:35;;;;;;;4.50;2.28;;;8.00;44.40;;;;;;5051214;28;20184;-71
2022/12/03 02:45:03;;;;;;;2.70;1.83;;;8.00;44.30;;;;;;5051603;28;20155;-70
2022/12/03 02:47:30;;;;;;;1.70;1.10;;;7.90;44.70;;;;;;5049400;28;20203;-71
2022/12/03 02:49:57;;;;;;;4.25;2.83;;;8.00;45.50;;;;;;5051136;28;20204;-70
2022/12/03 02:52:23;;;;;;;1.92;1.38;;;8.00;45.20;;;;;;5051237;28;20635;-70
2022/12/03 02:54:49;;;;;;;1.80;1.40;;;8.00;44.90;;;;;;5051214;28;20195;-72
2022/12/03 02:57:15;;;;;;;2.53;1.73;;;7.80;44.40;;;;;;5051407;28;20777;-70
2022/12/03 02:59:44;;;;;;;1.90;1.33;;;7.80;45.10;;;;;;5049324;28;20199;-70
2022/12/03 03:02:11;;;;;;;1.77;1.20;;;7.90;45.10;;;;;;5048336;28;20180;-70
2022/12/03 03:04:37;;;;;;;1.70;1.10;;;8.00;44.80;;;;;;5049862;28;20176;-70
2022/12/03 03:07:03;;;;;;;1.90;1.30;;;8.00;44.80;;;;;;5053030;28;20552;-70
2022/12/03 03:09:28;;;;;;;1.80;1.20;;;8.00;44.60;;;;;;5048789;28;20212;-70
2022/12/03 03:11:54;;;;;;;1.90;1.30;;;7.50;45.80;;;;;;5050556;28;20474;-70
2022/12/03 03:14:20;;;;;;;1.70;1.10;;;7.50;46.70;;;;;;5050491;28;20655;-71
2022/12/03 03:16:54;;;;;;;2.00;1.30;;;7.70;46.30;;;;;;5058346;28;20178;-70
2022/12/03 03:19:24;;;;;;;3.20;1.83;;;7.80;46.50;;;;;;5048537;28;20252;-72
2022/12/03 03:21:49;;;;;;;1.90;1.30;;;7.90;45.80;;;;;;5049655;28;20184;-70
2022/12/03 03:24:15;;;;;;;1.70;1.10;;;7.90;45.70;;;;;;5049980;28;20681;-70
2022/12/03 03:26:41;;;;;;;1.90;1.40;;;7.90;46.00;;;;;;5050526;28;20183;-70
2022/12/03 03:29:06;;;;;;;2.60;1.80;;;8.10;45.50;;;;;;5052125;28;20663;-70
2022/12/03 03:31:32;;;;;;;1.80;1.20;;;8.20;44.50;;;;;;5049584;28;20176;-70
2022/12/03 03:33:58;;;;;;;1.70;1.10;;;8.30;44.30;;;;;;5054369;28;20674;-71
2022/12/03 03:36:24;;;;;;;1.70;1.10;;;8.40;44.30;;;;;;5054472;28;20677;-70
2022/12/03 03:38:50;;;;;;;1.67;1.10;;;8.30;44.80;;;;;;5056516;28;20207;-70
2022/12/03 03:41:17;;;;;;;1.80;1.30;;;8.30;44.50;;;;;;5052704;28;20191;-71
2022/12/03 03:43:44;;;;;;;2.65;2.05;;;8.40;44.30;;;;;;5054030;28;20410;-70
2022/12/03 03:46:11;;;;;;;2.13;1.55;;;7.70;44.80;;;;;;5054666;28;20223;-71
2022/12/03 03:48:51;;;;;;;2.80;1.90;;;7.50;45.00;;;;;;5042112;28;20619;-70
2022/12/03 03:51:18;;;;;;;1.70;1.10;;;7.60;44.80;;;;;;5052122;28;20270;-70
2022/12/03 03:53:47;;;;;;;1.70;1.20;;;7.80;45.50;;;;;;5053942;28;20191;-70
2022/12/03 03:56:15;;;;;;;1.70;1.10;;;7.50;45.00;;;;;;5053335;28;20230;-72
2022/12/03 03:58:40;;;;;;;2.20;1.48;;;7.50;44.30;;;;;;5053698;28;20568;-71
2022/12/03 04:01:07;;;;;;;1.77;1.20;;;7.70;44.10;;;;;;5056536;28;20188;-69
2022/12/03 04:03:33;;;;;;;3.25;1.98;;;7.80;44.00;;;;;;5055732;28;20206;-71
2022/12/03 04:05:59;;;;;;;2.00;1.52;;;7.90;43.50;;;;;;5055424;28;20199;-70
2022/12/03 04:08:25;;;;;;;1.87;1.23;;;8.00;43.60;;;;;;5051950;28;20283;-71
2022/12/03 04:13:34;;;;;;;1.70;1.10;;;8.10;43.80;;;;;;5045796;28;20183;-73
2022/12/03 04:16:00;;;;;;;1.80;1.20;;;7.80;43.10;;;;;;5057407;28;20535;-70
2022/12/03 04:18:44;;;;;;;1.80;1.23;;;8.00;44.00;;;;;;5054115;28;20580;-70
2022/12/03 04:24:07;;;;;;;2.20;1.50;;;8.30;42.20;;;;;;5045192;28;20250;-70
2022/12/03 04:29:18;;;;;;;1.88;1.35;;;8.50;42.00;;;;;;5053420;28;20305;-70
2022/12/03 04:37:12;;;;;;;2.97;1.58;;;8.70;41.60;;;;;;5053932;28;20175;-70
2022/12/03 04:39:38;;;;;;;1.70;1.20;;;8.70;41.80;;;;;;5052494;28;20200;-71
2022/12/03 04:42:04;;;;;;;1.70;1.17;;;8.50;42.80;;;;;;5053765;28;20631;-72
2022/12/03 04:44:36;;;;;;;1.80;1.30;;;8.30;43.60;;;;;;5052357;28;20430;-70
2022/12/03 04:47:19;;;;;;;1.80;1.10;;;8.30;43.30;;;;;;5053037;28;20233;-70
2022/12/03 04:49:47;;;;;;;1.73;1.15;;;8.30;43.20;;;;;;5033790;28;20245;-70
2022/12/03 04:52:14;;;;;;;1.70;1.20;;;8.30;43.20;;;;;;5033732;28;20172;-70
2022/12/03 04:54:41;;;;;;;1.70;1.10;;;8.20;43.30;;;;;;5033558;28;20183;-72
2022/12/03 04:57:08;;;;;;;1.70;1.17;;;8.30;43.70;;;;;;5052062;28;20655;-70
2022/12/03 04:59:34;;;;;;;1.80;1.20;;;8.40;42.70;;;;;;5053156;28;20658;-69
2022/12/03 05:02:00;;;;;;;1.70;1.20;;;8.40;43.20;;;;;;5053373;28;20183;-70
2022/12/03 05:04:26;;;;;;;1.80;1.20;;;8.70;42.00;;;;;;5053253;28;20183;-71
2022/12/03 05:06:52;;;;;;;2.23;1.67;;;8.50;42.10;;;;;;5051483;28;20184;-72
2022/12/03 05:09:17;;;;;;;2.53;1.40;;;8.40;42.70;;;;;;5055339;28;20536;-70
2022/12/03 05:11:43;;;;;;;1.77;1.23;;;8.30;43.10;;;;;;5053997;28;20635;-80
2022/12/03 05:14:09;;;;;;;1.70;1.10;;;8.60;44.00;;;;;;5056333;28;20607;-75
2022/12/03 05:16:35;;;;;;;1.70;1.10;;;8.20;43.20;;;;;;5052766;28;20178;-76
2022/12/03 05:19:01;;;;;;;1.90;1.30;;;8.10;42.80;;;;;;5053215;28;20435;-75
2022/12/03 05:21:27;;;;;;;2.90;1.95;;;8.00;43.70;;;;;;5052804;28;20441;-75
2022/12/03 05:23:52;;;;;;;1.70;1.10;;;7.60;43.00;;;;;;5053082;28;20184;-77
2022/12/03 05:26:18;;;;;;;1.80;1.20;;;7.60;42.00;;;;;;5053152;28;20176;-75
2022/12/03 05:28:44;;;;;;;2.00;1.40;;;7.70;41.70;;;;;;5050578;28;20592;-75
2022/12/03 05:31:09;;;;;;;1.80;1.20;;;7.80;41.80;;;;;;5052834;28;20241;-74
2022/12/03 05:33:35;;;;;;;1.70;1.10;;;7.10;43.20;;;;;;5052857;28;20594;-71
2022/12/03 05:36:00;;;;;;;2.00;1.40;;;7.20;44.20;;;;;;5050779;28;20180;-70
2022/12/03 05:38:26;;;;;;;1.73;1.20;;;8.00;43.80;;;;;;5045406;28;20950;-70
2022/12/03 05:40:52;;;;;;;2.30;1.50;;;7.60;43.10;;;;;;5052929;28;20171;-69
2022/12/03 05:43:17;;;;;;;2.20;1.70;;;7.70;43.90;;;;;;5056656;28;20190;-71
2022/12/03 05:45:43;;;;;;;2.43;1.97;;;7.30;43.60;;;;;;5052345;28;20188;-73
2022/12/03 05:48:11;;;;;;;3.75;1.58;;;7.40;43.90;;;;;;5052555;28;20200;-72
2022/12/03 05:50:39;;;;;;;1.80;1.25;;;7.90;41.60;;;;;;5055770;28;20659;-72
2022/12/03 05:53:05;;;;;;;1.80;1.20;;;7.80;42.30;;;;;;5034812;28;20180;-71
2022/12/03 05:55:31;;;;;;;2.40;1.38;;;7.70;42.40;;;;;;5046623;28;20172;-71
2022/12/03 05:57:57;;;;;;;3.72;1.75;;;7.50;43.00;;;;;;5052775;28;20589;-71
2022/12/03 06:00:36;;;;;;;2.73;1.50;;;7.90;42.20;;;;;;5051929;28;20279;-71
2022/12/03 06:03:04;;;;;;;1.70;1.25;;;7.60;41.50;;;;;;5052440;28;20387;-70
2022/12/03 06:05:29;;;;;;;2.75;1.45;;;7.40;42.40;;;;;;5050016;28;20184;-70
2022/12/03 06:07:55;;;;;;;1.77;1.17;;;7.60;42.80;;;;;;5050880;28;20257;-70
2022/12/03 06:10:23;;;;;;;1.70;1.20;;;7.60;42.20;;;;;;5052018;28;20180;-70
2022/12/03 06:12:48;;;;;;;1.90;1.30;;;7.70;41.90;;;;;;5051920;28;20172;-70
2022/12/03 06:15:14;;;;;;;2.07;1.53;;;8.20;43.10;;;;;;5050628;28;20666;-70
2022/12/03 06:17:40;;;;;;;5.87;1.50;;;6.10;40.70;;;;;;5051266;28;20184;-71
2022/12/03 06:20:07;;;;;;;1.70;1.10;;;8.00;42.20;;;;;;5052145;28;20192;-70
2022/12/03 06:22:33;;;;;;;2.00;1.33;;;8.10;42.20;;;;;;5051821;28;20211;-70
2022/12/03 06:24:59;;;;;;;2.37;1.50;;;8.20;41.90;;;;;;5052074;28;20218;-70
2022/12/03 06:27:24;;;;;;;2.10;1.50;;;8.10;41.80;;;;;;5049860;28;20474;-70
2022/12/03 06:29:50;;;;;;;1.70;1.10;;;8.00;41.40;;;;;;5051232;28;20238;-72
2022/12/03 06:32:16;;;;;;;2.03;1.43;;;8.20;42.10;;;;;;5051495;28;20190;-74
2022/12/03 06:34:41;;;;;;;1.90;1.30;;;7.70;42.90;;;;;;5048569;28;20225;-71
2022/12/03 06:37:07;;;;;;;2.67;1.70;;;7.70;42.80;;;;;;5054239;28;20655;-71
2022/12/03 06:39:32;;;;;;;2.10;1.30;;;8.00;41.40;;;;;;5053129;28;20349;-72
2022/12/03 06:41:58;;;;;;;2.00;1.40;;;8.20;41.50;;;;;;5052098;28;20188;-70
2022/12/03 06:44:24;;;;;;;2.97;2.57;;;8.00;42.30;;;;;;5053469;28;20994;-71
2022/12/03 06:46:49;;;;;;;1.70;1.10;;;8.10;42.70;;;;;;5049173;28;20184;-70
2022/12/03 06:49:15;;;;;;;1.90;1.33;;;8.30;41.50;;;;;;5049423;28;20737;-73
2022/12/03 06:51:40;;;;;;;2.67;2.00;;;8.30;41.90;;;;;;5051076;28;20171;-70
2022/12/03 06:54:06;;;;;;;2.37;1.60;;;8.00;42.50;;;;;;5051484;28;20651;-70
2022/12/03 06:56:33;;;;;;;2.53;1.83;;;8.00;42.60;;;;;;5049484;28;20205;-71
2022/12/03 06:58:58;;;;;;;1.70;1.10;;;8.20;42.60;;;;;;5051101;28;20203;-70
2022/12/03 07:01:24;;;;;;;1.80;1.10;;;8.20;42.60;;;;;;5051297;28;20658;-70
2022/12/03 07:03:49;;;;;;;1.80;1.40;;;8.40;42.10;;;;;;5051477;28;20251;-70
2022/12/03 07:06:15;;;;;;;1.70;1.10;;;8.50;42.00;;;;;;5049196;28;20531;-73
2022/12/03 07:08:40;;;;;;;1.90;1.30;;;8.30;43.00;;;;;;5050796;28;20207;-70
2022/12/03 07:11:29;;;;;;;1.70;1.10;;;7.90;42.30;;;;;;5051181;28;20188;-70
2022/12/03 07:13:55;;;;;;;1.90;1.20;;;7.60;43.80;;;;;;5046649;28;20279;-70
2022/12/03 07:16:21;;;;;;;1.80;1.23;;;7.40;44.10;;;;;;5051022;28;20183;-72
2022/12/03 07:18:47;;;;;;;2.93;1.80;;;7.70;44.40;;;;;;5051305;28;20601;-70
2022/12/03 07:21:12;;;;;;;2.00;1.40;;;8.00;43.40;;;;;;5051361;28;20179;-70
2022/12/03 07:23:38;;;;;;;2.00;1.43;;;8.10;43.20;;;;;;5049230;28;20210;-70
2022/12/03 07:26:03;;;;;;;5.10;1.67;;;7.90;42.10;;;;;;5050941;28;20680;-72
2022/12/03 07:28:29;;;;;;;1.90;1.40;;;8.00;42.20;;;;;;5050636;28;20211;-70
2022/12/03 07:30:55;;;;;;;8.10;1.83;;;8.10;41.90;;;;;;5050965;28;20625;-70
2022/12/03 07:33:20;;;;;;;2.50;1.57;;;7.70;43.20;;;;;;5050096;28;20194;-71
2022/12/03 07:35:46;;;;;;;1.90;1.30;;;7.90;43.70;;;;;;5049532;28;20187;-71
2022/12/03 07:38:11;;;;;;;1.77;1.23;;;8.20;42.40;;;;;;5050792;28;20527;-70
2022/12/03 07:40:37;;;;;;;2.10;1.40;;;8.30;42.40;;;;;;5051045;28;20659;-70
2022/12/03 07:43:03;;;;;;;2.57;1.63;;;8.20;42.50;;;;;;5049736;28;20262;-70
2022/12/03 07:45:28;;;;;;;1.80;1.20;;;8.60;43.30;;;;;;5050657;28;20538;-70
2022/12/03 07:47:54;;;;;;;3.60;1.77;;;8.40;42.40;;;;;;5051037;28;20234;-72
2022/12/03 07:50:19;;;;;;;2.10;1.50;;;8.60;43.10;;;;;;5050810;28;20188;-70
2022/12/03 07:52:45;;;;;;;5.00;2.50;;;8.80;41.20;;;;;;5050623;28;20164;-70
2022/12/03 07:55:11;;;;;;;2.67;1.97;;;8.70;41.60;;;;;;5048665;28;20183;-70
2022/12/03 07:57:37;;;;;;;1.90;1.30;;;8.70;41.00;;;;;;5050735;28;20176;-70
2022/12/03 08:00:04;;;;;;;1.80;1.10;;;8.50;42.10;;;;;;5050273;28;20740;-71
2022/12/03 08:02:30;;;;;;;1.90;1.20;;;8.50;41.10;;;;;;5049704;28;20176;-72
2022/12/03 08:04:55;;;;;;;2.00;1.67;;;8.60;41.30;;;;;;5049966;28;20226;-71
2022/12/03 08:07:21;;;;;;;1.73;1.20;;;8.40;40.60;;;;;;5049416;28;20183;-71
2022/12/03 08:09:47;;;;;;;1.73;1.13;;;8.70;39.50;;;;;;5050415;28;20196;-71
2022/12/03 08:12:21;;;;;;;2.43;1.73;;;8.60;39.70;;;;;;5049138;28;20655;-73
2022/12/03 08:14:46;;;;;;;2.00;1.40;;;8.60;40.40;;;;;;5050441;28;20168;-73
2022/12/03 08:17:13;;;;;;;2.43;1.47;;;8.40;41.40;;;;;;5050902;28;20270;-70
2022/12/03 08:19:44;;;;;;;1.80;1.20;;;8.20;41.60;;;;;;5053508;28;20196;-71
2022/12/03 08:22:14;;;;;;;3.00;1.80;;;7.80;42.80;;;;;;5052262;28;20196;-70
2022/12/03 08:24:41;;;;;;;2.00;1.30;;;7.60;43.10;;;;;;5053475;28;20242;-70
2022/12/03 08:27:18;;;;;;;1.80;1.20;;;7.80;43.40;;;;;;5052697;28;20196;-70
2022/12/03 08:29:44;;;;;;;1.80;1.20;;;7.80;43.20;;;;;;5053506;28;20717;-70
2022/12/03 08:32:11;;;;;;;1.80;1.20;;;7.80;44.20;;;;;;5053878;28;20176;-71
2022/12/03 08:34:43;;;;;;;1.75;1.20;;;7.60;43.80;;;;;;5053907;28;20255;-69
2022/12/03 08:37:17;;;;;;;1.80;1.20;;;7.90;42.60;;;;;;5051562;28;20199;-70
2022/12/03 08:39:47;;;;;;;1.90;1.40;;;8.10;41.80;;;;;;5053848;28;20192;-70
2022/12/03 08:45:29;;;;;;;1.80;1.50;;;7.40;44.10;;;;;;5054141;28;20234;-70
2022/12/03 08:47:56;;;;;;;2.00;1.45;;;7.70;43.40;;;;;;5052091;28;20214;-70
2022/12/03 08:50:37;;;;;;;1.70;1.20;;;7.90;41.90;;;;;;5053554;28;20257;-70
2022/12/03 08:53:20;;;;;;;1.98;1.27;;;7.90;41.30;;;;;;5053601;28;20271;-70
2022/12/03 08:55:51;;;;;;;1.70;1.10;;;7.80;42.90;;;;;;5053426;28;20589;-71
2022/12/03 08:58:41;;;;;;;1.90;1.30;;;8.10;41.70;;;;;;5051908;28;20266;-70
2022/12/03 09:01:10;;;;;;;1.80;1.20;;;8.20;40.90;;;;;;5053334;28;20176;-70
2022/12/03 09:03:38;;;;;;;2.30;1.63;;;7.20;43.00;;;;;;5053175;28;20210;-73
2022/12/03 09:06:04;;;;;;;2.20;1.33;;;7.10;43.30;;;;;;5053406;28;20188;-70
2022/12/03 09:08:30;;;;;;;2.20;1.55;;;7.00;44.20;;;;;;5051219;28;20243;-73
2022/12/03 09:10:55;;;;;;;2.10;1.50;;;7.40;44.10;;;;;;5052985;28;20218;-70
2022/12/03 09:13:21;;;;;;;1.77;1.10;;;7.70;42.40;;;;;;5053264;28;20555;-70
2022/12/03 09:15:47;;;;;;;2.17;1.20;;;7.40;42.00;;;;;;5053140;28;20183;-70
2022/12/03 09:18:13;;;;;;;2.00;1.40;;;8.40;41.40;;;;;;5052751;28;20263;-72
2022/12/03 09:20:39;;;;;;;2.28;1.63;;;8.40;39.90;;;;;;5051131;28;20208;-71
2022/12/03 09:23:05;;;;;;;1.70;1.10;;;8.50;38.20;;;;;;5052968;28;20219;-70
2022/12/03 09:25:31;;;;;;;1.70;1.10;;;8.40;39.90;;;;;;5053169;28;20176;-70
2022/12/03 09:27:57;;;;;;;1.80;1.20;;;8.10;41.90;;;;;;5052879;28;20210;-70
2022/12/03 09:30:22;;;;;;;1.80;1.20;;;7.90;42.10;;;;;;5049444;28;20211;-70
2022/12/03 09:32:48;;;;;;;1.80;1.10;;;8.30;42.20;;;;;;5052189;28;20183;-70
2022/12/03 09:35:13;;;;;;;2.10;1.43;;;7.80;41.40;;;;;;5052962;28;20234;-70
2022/12/03 09:37:39;;;;;;;1.80;1.20;;;7.90;41.00;;;;;;5053068;28;20238;-70
2022/12/03 09:40:06;;;;;;;1.70;1.10;;;7.60;41.40;;;;;;5051011;28;20200;-73
2022/12/03 09:42:32;;;;;;;1.88;1.23;;;7.40;42.80;;;;;;5052585;28;20171;-70
2022/12/03 09:44:58;;;;;;;2.83;1.83;;;7.60;43.50;;;;;;5052450;28;20172;-70
2022/12/03 09:47:24;;;;;;;1.80;1.20;;;7.90;42.30;;;;;;5052404;28;20905;-70
2022/12/03 09:49:50;;;;;;;2.00;1.30;;;7.60;42.40;;;;;;5052472;28;20541;-70
2022/12/03 09:52:24;;;;;;;1.80;1.20;;;7.50;41.90;;;;;;5050502;28;20442;-70
2022/12/03 09:54:50;;;;;;;2.00;1.30;;;7.70;42.00;;;;;;5052181;28;20195;-70
2022/12/03 09:57:16;;;;;;;1.80;1.10;;;7.90;41.50;;;;;;5052173;28;20590;-70
2022/12/03 09:59:42;;;;;;;2.20;1.58;;;8.30;39.30;;;;;;5051897;28;20273;-70
2022/12/03 10:02:23;;;;;;;1.77;1.17;;;8.60;38.50;;;;;;5050243;28;20678;-70
2022/12/03 10:04:49;;;;;;;1.80;1.20;;;8.80;38.40;;;;;;5051541;28;20194;-70
2022/12/03 10:07:15;;;;;;;1.83;1.20;;;8.50;38.60;;;;;;5051912;28;20167;-72
2022/12/03 10:09:40;;;;;;;1.77;1.13;;;8.20;39.70;;;;;;5052062;28;20710;-70
2022/12/03 10:12:12;;;;;;;1.80;1.20;;;8.30;39.70;;;;;;5050878;28;20948;-70
2022/12/03 10:14:39;;;;;;;1.80;1.20;;;8.00;40.00;;;;;;5052014;28;20204;-71
2022/12/03 10:17:04;;;;;;;1.80;1.20;;;7.90;40.00;;;;;;5051974;28;20269;-70
2022/12/03 10:19:34;;;;;;;3.53;1.63;;;8.20;39.00;;;;;;5051978;28;20274;-71
2022/12/03 10:22:00;;;;;;;1.90;1.27;;;8.20;40.40;;;;;;5051752;28;20199;-72
2022/12/03 10:24:27;;;;;;;2.57;1.53;;;7.90;40.10;;;;;;5050003;28;20214;-72
2022/12/03 10:27:04;;;;;;;1.80;1.30;;;7.90;39.90;;;;;;5051423;28;20426;-70
2022/12/03 10:29:32;;;;;;;1.90;1.33;;;8.50;41.00;;;;;;5051285;28;20718;-72
2022/12/03 10:32:01;;;;;;;1.80;1.20;;;8.40;40.30;;;;;;5051626;28;20176;-71
2022/12/03 10:34:38;;;;;;;1.80;1.20;;;8.80;38.10;;;;;;5049827;28;20199;-70
2022/12/03 10:37:21;;;;;;;2.88;1.70;;;8.00;39.10;;;;;;5051574;28;20183;-70
2022/12/03 10:40:08;;;;;;;2.25;1.23;;;7.40;41.50;;;;;;5051347;28;20203;-70
2022/12/03 10:42:39;;;;;;;1.80;1.20;;;7.60;42.70;;;;;;5051046;28;20164;-70
2022/12/03 10:45:19;;;;;;;1.70;1.10;;;7.40;42.70;;;;;;5049874;28;20294;-71
2022/12/03 10:48:26;;;;;;;1.70;1.15;;;7.20;42.70;;;;;;5051326;28;20263;-70
2022/12/03 10:50:55;;;;;;;1.80;1.30;;;7.80;42.10;;;;;;5028910;28;20173;-70
2022/12/03 10:53:25;;;;;;;1.70;1.10;;;8.00;40.10;;;;;;5029012;28;20276;-70
2022/12/03 10:55:57;;;;;;;3.45;1.63;;;8.10;40.00;;;;;;5021646;28;20306;-70
2022/12/03 10:58:29;;;;;;;2.10;1.48;;;8.50;38.00;;;;;;5020581;28;20216;-70
2022/12/03 11:00:57;;;;;;;2.22;1.70;;;9.10;37.50;;;;;;5028854;28;20164;-70
2022/12/03 11:03:40;;;;;;;2.88;1.88;;;8.60;38.00;;;;;;5017221;28;20340;-70
2022/12/03 11:06:14;;;;;;;1.80;1.20;;;8.50;38.70;;;;;;5026113;28;20188;-70
2022/12/03 11:08:42;;;;;;;1.75;1.20;;;8.50;37.50;;;;;;5028690;28;20857;-70
2022/12/03 11:11:19;;;;;;;1.80;1.20;;;8.60;37.60;;;;;;5028791;28;20652;-71
2022/12/03 11:13:52;;;;;;;2.25;1.35;;;8.30;37.60;;;;;;5017137;28;20185;-72
2022/12/03 11:16:39;;;;;;;1.77;1.20;;;8.60;38.20;;;;;;5028047;28;20585;-70
2022/12/03 11:19:17;;;;;;;1.80;1.20;;;8.40;38.90;;;;;;5028865;28;20692;-73
2022/12/03 11:22:16;;;;;;;1.85;1.25;;;8.10;40.60;;;;;;5028807;28;20272;-69
2022/12/03 11:24:41;;;;;;;1.80;1.20;;;7.90;41.80;;;;;;4968792;28;20190;-70
2022/12/03 11:27:17;;;;;;;4.63;1.50;;;8.30;39.70;;;;;;4989381;28;20188;-69
2022/12/03 11:29:59;;;;;;;1.70;1.10;;;8.60;38.20;;;;;;4989098;28;20217;-70
2022/12/03 11:32:36;;;;;;;1.80;1.20;;;9.00;37.50;;;;;;4989334;28;20556;-71
2022/12/03 11:35:12;;;;;;;2.42;1.85;;;8.50;38.10;;;;;;4987447;28;20280;-70
2022/12/03 11:37:38;;;;;;;1.70;1.10;;;8.20;39.80;;;;;;4953778;28;20175;-70
2022/12/03 11:40:27;;;;;;;1.70;1.00;;;7.70;40.70;;;;;;4969799;28;20207;-70
2022/12/03 11:42:53;;;;;;;1.90;1.40;;;8.00;39.90;;;;;;4969882;28;20167;-70
2022/12/03 11:45:35;;;;;;;1.70;1.10;;;7.90;39.30;;;;;;4988170;28;20272;-69
2022/12/03 11:48:09;;;;;;;1.90;1.38;;;7.70;41.40;;;;;;4989162;28;20209;-69
2022/12/03 11:50:37;;;;;;;1.70;1.10;;;7.80;40.10;;;;;;4989490;28;20617;-71
2022/12/03 11:53:30;;;;;;;1.70;1.10;;;7.80;40.60;;;;;;4990060;28;20265;-69
2022/12/03 11:56:07;;;;;;;1.70;1.10;;;7.70;40.10;;;;;;4991548;28;20229;-70
2022/12/03 11:58:38;;;;;;;1.83;1.23;;;7.90;40.10;;;;;;4992527;28;20205;-70
2022/12/03 12:01:06;;;;;;;2.28;1.48;;;7.60;39.40;;;;;;5044121;28;20187;-70
2022/12/03 12:03:35;;;;;;;2.00;1.40;;;7.80;40.60;;;;;;5054444;28;20195;-69
2022/12/03 12:06:09;;;;;;;4.47;1.70;;;7.80;40.20;;;;;;5052655;28;20191;-70
2022/12/03 12:08:40;;;;;;;1.80;1.20;;;7.70;41.00;;;;;;5046918;28;20216;-70
2022/12/03 12:11:27;;;;;;;1.85;1.20;;;8.00;40.30;;;;;;5054384;28;20200;-69
2022/12/03 12:13:55;;;;;;;1.85;1.23;;;8.00;39.90;;;;;;5054481;28;20160;-69
2022/12/03 12:16:42;;;;;;;1.70;1.10;;;7.60;40.10;;;;;;5052471;28;20211;-69
2022/12/03 12:19:41;;;;;;;2.20;1.40;;;7.60;40.50;;;;;;5054196;28;20220;-69
2022/12/03 12:22:25;;;;;;;2.90;1.80;;;8.00;40.70;;;;;;5054114;28;20206;-70
2022/12/03 12:24:54;;;;;;;2.08;1.30;;;8.00;39.30;;;;;;5054180;28;20241;-69
2022/12/03 12:27:23;;;;;;;2.20;1.50;;;8.00;39.20;;;;;;5052413;28;20268;-70
2022/12/03 12:29:57;;;;;;;1.80;1.20;;;7.90;40.00;;;;;;5052980;28;20214;-69
2022/12/03 12:32:28;;;;;;;1.85;1.25;;;7.60;40.80;;;;;;5054017;28;20207;-71
2022/12/03 12:35:19;;;;;;;2.92;1.45;;;7.60;39.80;;;;;;5053958;28;20168;-70
2022/12/03 12:38:10;;;;;;;2.20;1.42;;;8.20;39.80;;;;;;5051953;28;20698;-72
2022/12/03 12:40:38;;;;;;;3.13;1.65;;;8.50;38.10;;;;;;5038983;28;20191;-71
2022/12/03 12:43:25;;;;;;;2.17;1.40;;;8.80;36.50;;;;;;5053890;28;20179;-72
2022/12/03 12:45:54;;;;;;;3.28;1.95;;;8.90;36.20;;;;;;5053686;28;20733;-71
2022/12/03 12:48:33;;;;;;;2.65;1.92;;;9.30;35.10;;;;;;5053748;28;20299;-73
2022/12/03 12:51:19;;;;;;;2.35;1.55;;;9.10;35.20;;;;;;5051957;28;20187;-71
2022/12/03 12:53:45;;;;;;;1.80;1.27;;;9.20;35.60;;;;;;5047606;28;20168;-70
2022/12/03 12:56:28;;;;;;;1.80;1.20;;;9.30;35.00;;;;;;5053523;28;20173;-71
2022/12/03 12:58:58;;;;;;;2.70;1.65;;;9.00;36.10;;;;;;5053148;28;20200;-71
2022/12/03 13:01:30;;;;;;;3.95;1.50;;;8.80;37.10;;;;;;5051778;28;20192;-70
2022/12/03 13:03:57;;;;;;;2.35;1.70;;;9.10;36.10;;;;;;5052996;28;20250;-71
2022/12/03 13:06:28;;;;;;;1.75;1.13;;;9.10;36.30;;;;;;5053190;28;20192;-71
2022/12/03 13:08:55;;;;;;;2.10;1.50;;;9.00;37.40;;;;;;5054628;28;20216;-71
2022/12/03 13:11:24;;;;;;;1.88;1.30;;;9.30;35.60;;;;;;5053162;28;20259;-70
2022/12/03 13:13:50;;;;;;;2.13;1.40;;;8.30;37.60;;;;;;5051048;28;20179;-70
2022/12/03 13:16:23;;;;;;;2.00;1.38;;;8.30;39.90;;;;;;5053296;28;20172;-70
2022/12/03 13:18:54;;;;;;;2.00;1.30;;;8.60;38.20;;;;;;5053203;28;20200;-71
2022/12/03 13:21:24;;;;;;;2.00;1.40;;;8.80;38.40;;;;;;5053059;28;20175;-73
2022/12/03 13:23:52;;;;;;;2.00;1.27;;;8.80;36.40;;;;;;5051976;28;20192;-70
2022/12/03 13:26:34;;;;;;;1.80;1.20;;;8.70;36.40;;;;;;5052597;28;20195;-70